Terminal Aerodrome Forecast
Issued by NWS

Home | Current Version | Previous Version | Text Only | Print | Product List | Glossary On
Versions: 1 2 3 4 5 6 7 8 9 10 11 12 13 14 15 16 17
000
FTUS41 KGYX 041130
TAFRKD
TAF
KRKD 041130Z 0412/0512 24009KT P6SM OVC010
     FM041400 24010G18KT P6SM SCT030 BKN100
     FM050600 30008KT P6SM SCT040 BKN100
      AMD LTD TO CLD VIS AND WIND=

USA.gov is the U.S. government's official web portal to all federal, state and local government web resources and services.